Latest Weather Observations for Colpoys Point

IDW60901

Issued at 4:21 am WST Wednesday 27 May 2020 (issued every 10 minutes, with the page automatically refreshed every 10 minutes)

About weather observations | Map of Perth area stations | Latest observations for Perth area | Other Formats
Station Details ID: 009255 Name: COLPOYS POINT Lat: -32.23 Lon: 115.70 Height: 3.0 m
Data from the previous 72 hours. | See also: Recent months for locations in Western Australia
Date/Time
WST
Temp
°C
App
Temp
°C
Dew
Point
°C
Rel
Hum
%
Delta-T
°C
Wind Press
QNH
hPa
Press
MSL
hPa
Rain since
9am
mm
Dir  Spd
km/h
Gust
km/h
Spd
kts
Gust
kts
27/04:00am - - - - - N 26 32 14 17 - - -
27/03:30am - - - - - N 28 33 15 18 - - -
27/03:00am - - - - - N 20 32 11 17 - - -
27/02:30am - - - - - NNE 28 32 15 17 - - -
27/02:00am - - - - - NNE 24 28 13 15 - - -
27/01:30am - - - - - NNE 22 28 12 15 - - -
27/01:00am - - - - - NNE 24 28 13 15 - - -
27/12:30am - - - - - NNE 22 28 12 15 - - -
27/12:00am - - - - - NNE 20 24 11 13 - - -
 
Date/Time
WST
Temp
°C
App
Temp
°C
Dew
Point
°C
Rel
Hum
%
Delta-T
°C
Wind Press
QNH
hPa
Press
MSL
hPa
Rain since
9am
mm
Dir  Spd
km/h
Gust
km/h
Spd
kts
Gust
kts
26/11:30pm - - - - - NNE 15 17 8 9 - - -
26/11:00pm - - - - - N 11 15 6 8 - - -
26/10:30pm - - - - - NNW 9 11 5 6 - - -
26/10:00pm - - - - - NW 11 17 6 9 - - -
26/09:30pm - - - - - NNE 13 17 7 9 - - -
26/09:00pm - - - - - NE 15 19 8 10 - - -
26/08:30pm - - - - - NNE 19 20 10 11 - - -
26/08:00pm - - - - - NNE 19 22 10 12 - - -
26/07:30pm - - - - - N 17 22 9 12 - - -
26/07:00pm - - - - - N 13 19 7 10 - - -
26/06:30pm - - - - - NNE 7 9 4 5 - - -
26/06:00pm - - - - - NNE 13 13 7 7 - - -
26/05:30pm - - - - - NNE 7 13 4 7 - - -
26/05:00pm - - - - - NNE 4 7 2 4 - - -
26/04:30pm - - - - - CALM 0 0 0 0 - - -
26/04:00pm - - - - - NNE 7 9 4 5 - - -
26/03:30pm - - - - - NNE 7 9 4 5 - - -
26/03:00pm - - - - - NNE 9 13 5 7 - - -
26/02:30pm - - - - - SW 6 9 3 5 - - -
26/02:00pm - - - - - SW 6 7 3 4 - - -
26/01:30pm - - - - - CALM 0 0 0 0 - - -
26/01:00pm - - - - - CALM 0 0 0 0 - - -
26/12:30pm - - - - - N 9 11 5 6 - - -
26/12:00pm - - - - - NNE 7 9 4 5 - - -
26/11:30am - - - - - NNE 4 11 2 6 - - -
26/11:00am - - - - - NNE 13 15 7 8 - - -
26/10:30am - - - - - NNE 11 13 6 7 - - -
26/10:00am - - - - - NNE 11 13 6 7 - - -
26/09:30am - - - - - NE 7 9 4 5 - - -
26/09:00am - - - - - NE 15 17 8 9 - - -
26/08:30am - - - - - E 15 19 8 10 - - -
26/08:00am - - - - - NNE 7 9 4 5 - - -
26/07:30am - - - - - NE 13 17 7 9 - - -
26/07:00am - - - - - ENE 13 17 7 9 - - -
26/06:30am - - - - - NE 15 19 8 10 - - -
26/06:00am - - - - - E 13 17 7 9 - - -
26/05:30am - - - - - E 11 13 6 7 - - -
26/05:00am - - - - - E 11 13 6 7 - - -
26/04:30am - - - - - ESE 17 19 9 10 - - -
26/04:05am - - - - - SSW 17 37 9 20 - - -
26/04:00am - - - - - SE 7 13 4 7 - - -
26/03:30am - - - - - ESE 7 13 4 7 - - -
26/03:00am - - - - - SE 19 22 10 12 - - -
26/02:30am - - - - - SE 17 24 9 13 - - -
26/02:00am - - - - - SSW 28 39 15 21 - - -
26/01:30am - - - - - SW 32 43 17 23 - - -
26/01:00am - - - - - WSW 28 39 15 21 - - -
26/12:42am - - - - - SW 28 46 15 25 - - -
26/12:30am - - - - - WSW 22 37 12 20 - - -
26/12:15am - - - - - SW 33 61 18 33 - - -
26/12:00am - - - - - SW 37 52 20 28 - - -
 
Date/Time
WST
Temp
°C
App
Temp
°C
Dew
Point
°C
Rel
Hum
%
Delta-T
°C
Wind Press
QNH
hPa
Press
MSL
hPa
Rain since
9am
mm
Dir  Spd
km/h
Gust
km/h
Spd
kts
Gust
kts
25/11:42pm - - - - - SW 32 52 17 28 - - -
25/11:30pm - - - - - SW 28 44 15 24 - - -
25/11:00pm - - - - - SSW 39 54 21 29 - - -
25/10:30pm - - - - - SW 41 52 22 28 - - -
25/10:05pm - - - - - SSW 39 52 21 28 - - -
25/10:00pm - - - - - S 35 46 19 25 - - -
25/09:50pm - - - - - SSW 39 61 21 33 - - -
25/09:38pm - - - - - SW 37 57 20 31 - - -
25/09:30pm - - - - - SSW 41 54 22 29 - - -
25/09:04pm - - - - - SW 44 63 24 34 - - -
25/09:00pm - - - - - SW 44 56 24 30 - - -
25/08:30pm - - - - - SW 32 59 17 32 - - -
25/08:16pm - - - - - SW 37 56 20 30 - - -
25/08:00pm - - - - - SW 39 54 21 29 - - -
25/07:53pm - - - - - SW 50 69 27 37 - - -
25/07:45pm - - - - - SW 54 82 29 44 - - -
25/07:42pm - - - - - SW 48 82 26 44 - - -
25/07:40pm - - - - - SW 41 82 22 44 - - -
25/07:30pm - - - - - SW 41 61 22 33 - - -
25/07:09pm - - - - - SW 44 72 24 39 - - -
25/07:00pm - - - - - SW 46 57 25 31 - - -
25/06:30pm - - - - - SW 35 63 19 34 - - -
25/06:11pm - - - - - SW 41 76 22 41 - - -
25/06:00pm - - - - - SW 35 57 19 31 - - -
25/05:30pm - - - - - SW 43 70 23 38 - - -
25/05:00pm - - - - - SW 41 59 22 32 - - -
25/04:54pm - - - - - SW 32 59 17 32 - - -
25/04:35pm - - - - - SW 54 80 29 43 - - -
25/04:30pm - - - - - SW 56 80 30 43 - - -
25/04:02pm - - - - - SW 48 69 26 37 - - -
25/04:00pm - - - - - SW 46 61 25 33 - - -
25/03:33pm - - - - - SW 54 72 29 39 - - -
25/03:30pm - - - - - SW 54 72 29 39 - - -
25/03:26pm - - - - - WSW 50 70 27 38 - - -
25/03:15pm - - - - - SW 46 72 25 39 - - -
25/03:13pm - - - - - SW 54 78 29 42 - - -
25/03:07pm - - - - - WSW 50 78 27 42 - - -
25/03:04pm - - - - - WSW 46 78 25 42 - - -
25/03:00pm - - - - - WSW 41 63 22 34 - - -
25/02:30pm - - - - - WSW 44 67 24 36 - - -
25/02:00pm - - - - - WSW 50 89 27 48 - - -
25/01:59pm - - - - - WSW 48 89 26 48 - - -
25/01:50pm - - - - - SW 44 61 24 33 - - -
25/01:48pm - - - - - SW 46 61 25 33 - - -
25/01:40pm - - - - - WSW 43 70 23 38 - - -
25/01:30pm - - - - - WSW 44 83 24 45 - - -
25/01:29pm - - - - - WSW 43 83 23 45 - - -
25/01:27pm - - - - - WSW 37 83 20 45 - - -
25/01:00pm - - - - - WSW 43 61 23 33 - - -
25/12:30pm - - - - - WSW 46 70 25 38 - - -
25/12:00pm - - - - - W 44 70 24 38 - - -
25/11:30am - - - - - WSW 43 65 23 35 - - -
25/11:00am - - - - - WSW 44 67 24 36 - - -
25/10:30am - - - - - WSW 44 70 24 38 - - -
25/10:00am - - - - - W 44 63 24 34 - - -
25/09:30am - - - - - W 39 70 21 38 - - -
25/09:00am - - - - - WSW 35 59 19 32 - - -
25/08:30am - - - - - W 43 74 23 40 - - -
25/08:00am - - - - - W 44 70 24 38 - - -
25/07:30am - - - - - WSW 39 59 21 32 - - -
25/07:04am - - - - - W 41 59 22 32 - - -
25/07:00am - - - - - W 41 57 22 31 - - -
25/06:30am - - - - - W 43 61 23 33 - - -
25/06:00am - - - - - W 48 72 26 39 - - -
25/05:30am - - - - - W 46 72 25 39 - - -
25/05:00am - - - - - W 52 76 28 41 - - -
25/04:30am - - - - - W 50 74 27 40 - - -
25/04:00am - - - - - W 59 87 32 47 - - -
25/03:41am - - - - - W 52 102 28 55 - - -
25/03:30am - - - - - W 56 78 30 42 - - -
25/03:23am - - - - - W 54 76 29 41 - - -
25/03:18am - - - - - W 59 85 32 46 - - -
25/03:09am - - - - - W 57 91 31 49 - - -
25/03:00am - - - - - WNW 50 76 27 41 - - -
25/02:30am - - - - - WNW 46 74 25 40 - - -
25/02:00am - - - - - NW 41 65 22 35 - - -
25/01:30am - - - - - NW 37 57 20 31 - - -
25/01:00am - - - - - NW 39 65 21 35 - - -
25/12:30am - - - - - NW 41 70 22 38 - - -
25/12:00am - - - - - NNW 39 67 21 36 - - -
 
Date/Time
WST
Temp
°C
App
Temp
°C
Dew
Point
°C
Rel
Hum
%
Delta-T
°C
Wind Press
QNH
hPa
Press
MSL
hPa
Rain since
9am
mm
Dir  Spd
km/h
Gust
km/h
Spd
kts
Gust
kts
24/11:30pm - - - - - NNW 39 63 21 34 - - -
24/11:00pm - - - - - NNW 37 57 20 31 - - -
24/10:31pm - - - - - N 44 63 24 34 - - -
24/10:30pm - - - - - N 46 63 25 34 - - -
24/10:17pm - - - - - N 46 65 25 35 - - -
24/10:00pm - - - - - N 54 69 29 37 - - -
24/09:30pm - - - - - NNE 63 78 34 42 - - -
24/09:03pm - - - - - NNE 61 80 33 43 - - -
24/09:00pm - - - - - NNE 61 74 33 40 - - -
24/08:30pm - - - - - NNE 65 82 35 44 - - -
24/08:03pm - - - - - NNE 69 87 37 47 - - -
24/08:00pm - - - - - NNE 72 87 39 47 - - -
24/07:30pm - - - - - NNE 67 80 36 43 - - -
24/07:00pm - - - - - NNE 59 76 32 41 - - -
24/06:53pm - - - - - NNE 54 74 29 40 - - -
24/06:30pm - - - - - NNE 54 61 29 33 - - -
24/06:00pm - - - - - NNE 54 69 29 37 - - -
24/05:30pm - - - - - NNE 57 72 31 39 - - -
24/05:00pm - - - - - NNE 54 69 29 37 - - -
24/04:30pm - - - - - NNE 54 63 29 34 - - -
24/04:00pm - - - - - N 61 74 33 40 - - -
24/03:45pm - - - - - NNE 59 78 32 42 - - -
24/03:30pm - - - - - NE 57 70 31 38 - - -
24/03:20pm - - - - - NE 56 74 30 40 - - -
24/03:00pm - - - - - NE 57 69 31 37 - - -
24/02:30pm - - - - - NE 52 69 28 37 - - -
24/02:04pm - - - - - NE 54 72 29 39 - - -
24/02:00pm - - - - - NE 52 63 28 34 - - -
24/01:30pm - - - - - NNE 46 57 25 31 - - -
24/01:24pm - - - - - NNE 48 57 26 31 - - -
24/01:00pm - - - - - NNE 65 80 35 43 - - -
24/12:46pm - - - - - NNE 52 87 28 47 - - -
24/12:38pm - - - - - NNE 46 65 25 35 - - -
24/12:30pm - - - - - NNE 50 61 27 33 - - -
24/12:18pm - - - - - NNE 50 69 27 37 - - -
24/12:00pm - - - - - NNE 46 61 25 33 - - -
24/11:36am - - - - - NNE 48 67 26 36 - - -
24/11:30am - - - - - NNE 52 67 28 36 - - -
24/11:12am - - - - - NE 48 67 26 36 - - -
24/11:00am - - - - - NE 46 56 25 30 - - -
24/10:30am - - - - - NE 39 50 21 27 - - -
24/10:00am - - - - - NE 41 52 22 28 - - -
24/09:30am - - - - - NE 35 43 19 23 - - -
24/09:00am - - - - - NE 43 54 23 29 - - -
24/08:30am - - - - - NE 41 57 22 31 - - -
24/08:00am - - - - - NE 44 54 24 29 - - -
24/07:30am - - - - - NE 39 52 21 28 - - -
24/07:00am - - - - - NE 43 54 23 29 - - -
24/06:30am - - - - - NE 35 41 19 22 - - -
24/06:00am - - - - - NE 37 43 20 23 - - -
24/05:30am - - - - - NE 39 48 21 26 - - -
24/05:00am - - - - - NE 39 48 21 26 - - -
24/04:30am - - - - - NE 39 48 21 26 - - -

Latest Capital City Observations: Canberra | Sydney | Melbourne | Brisbane | Adelaide | Perth | Hobart | Darwin

Other formats

Comma delimited format used in spreadsheet applications
http://www.bom.gov.au/fwo/IDW60901/IDW60901.99255.axf

JavaScript Object Notation format (JSON) in row-major order
http://www.bom.gov.au/fwo/IDW60901/IDW60901.99255.json

Data quality

Most of these data are generated automatically and are frequently updated. Quality checks on data are not normally performed. It is possible for incorrect values to appear. Refer to information at About Latest Weather Observations and please check the disclaimer before using these data.